createdAt,value
2018-12-04T00:00:04.182Z,10.20
2018-12-04T00:02:33.199Z,10.30
2018-12-04T00:05:02.220Z,10.30
2018-12-04T00:07:31.237Z,10.30
2018-12-04T00:10:00.684Z,10.30
2018-12-04T00:14:58.277Z,10.30
2018-12-04T00:17:27.255Z,10.30
2018-12-04T00:19:56.410Z,10.30
2018-12-04T00:22:25.448Z,10.20
2018-12-04T00:24:54.455Z,10.20
2018-12-04T00:27:23.478Z,10.20
2018-12-04T00:29:52.540Z,10.20
2018-12-04T00:32:28.222Z,10.20
2018-12-04T00:34:57.215Z,10.10
2018-12-04T00:37:26.234Z,10.20
2018-12-04T00:39:55.257Z,10.20
2018-12-04T00:44:53.053Z,10.20
2018-12-04T00:47:22.084Z,10.20
2018-12-04T00:49:51.127Z,10.20
2018-12-04T00:54:48.915Z,10.20
2018-12-04T00:57:17.934Z,10.30
2018-12-04T01:02:15.567Z,10.30
2018-12-04T01:04:44.655Z,10.30
2018-12-04T01:07:13.690Z,10.30
2018-12-04T01:09:42.684Z,10.30
2018-12-04T01:14:40.286Z,10.20
2018-12-04T01:17:09.446Z,10.20
2018-12-04T01:19:38.412Z,10.30
2018-12-04T01:22:07.431Z,10.30
2018-12-04T01:24:36.402Z,10.20
2018-12-04T01:27:06.133Z,10.30
2018-12-04T01:29:35.112Z,10.30
2018-12-04T01:32:04.231Z,10.30
2018-12-04T01:34:33.204Z,10.30
2018-12-04T01:37:02.264Z,10.30
2018-12-04T01:39:31.223Z,10.30
2018-12-04T01:42:00.920Z,10.30
2018-12-04T01:46:58.546Z,10.30
2018-12-04T01:49:27.598Z,10.30
2018-12-04T01:51:56.892Z,10.30
2018-12-04T01:56:54.513Z,10.40
2018-12-04T01:59:23.648Z,10.30
2018-12-04T02:04:21.849Z,10.30
2018-12-04T02:06:50.840Z,10.30
2018-12-04T02:09:19.870Z,10.30
2018-12-04T02:11:49.580Z,10.30
2018-12-04T02:14:19.229Z,10.20
2018-12-04T02:16:48.643Z,10.20
2018-12-04T02:19:17.871Z,10.20
2018-12-04T02:21:46.835Z,10.20
2018-12-04T02:24:15.848Z,10.20
2018-12-04T02:26:44.866Z,10.20
2018-12-04T02:29:13.880Z,10.10
2018-12-04T02:31:43.592Z,10.10
2018-12-04T02:34:12.769Z,10.10
2018-12-04T02:36:41.739Z,10.10
2018-12-04T02:39:10.762Z,10.10
2018-12-04T02:41:39.768Z,10.20
2018-12-04T02:46:37.389Z,10.20
2018-12-04T02:49:06.384Z,10.20
2018-12-04T02:51:35.365Z,10.20
2018-12-04T02:54:04.492Z,10.20
2018-12-04T02:56:33.476Z,10.20
2018-12-04T02:59:02.495Z,10.20
2018-12-04T03:01:31.487Z,10.20
2018-12-04T03:04:00.670Z,10.20
2018-12-04T03:08:58.260Z,10.10
2018-12-04T03:11:27.229Z,10.10
2018-12-04T03:13:56.201Z,10.10
2018-12-04T03:16:25.162Z,10.00
2018-12-04T03:18:54.189Z,9.90
2018-12-04T03:21:23.254Z,9.90
2018-12-04T03:23:52.300Z,9.90
2018-12-04T03:26:21.294Z,9.90
2018-12-04T03:28:50.841Z,9.80
2018-12-04T03:31:19.950Z,9.70
2018-12-04T03:33:48.965Z,9.70
2018-12-04T03:36:18.037Z,9.70
2018-12-04T03:38:47.028Z,9.70
2018-12-04T03:41:16.013Z,9.60
2018-12-04T03:43:45.037Z,9.60
2018-12-04T03:46:14.086Z,9.50
2018-12-04T03:48:43.049Z,9.50
2018-12-04T03:53:41.086Z,9.40
2018-12-04T03:56:10.061Z,9.40
2018-12-04T03:58:39.056Z,9.40
2018-12-04T04:01:08.162Z,9.30
2018-12-04T04:03:37.556Z,9.30
2018-12-04T04:06:06.548Z,9.30
2018-12-04T04:08:35.605Z,9.20
2018-12-04T04:11:04.607Z,9.20
2018-12-04T04:13:33.633Z,9.20
2018-12-04T04:16:02.687Z,9.10
2018-12-04T04:18:31.820Z,9.20
2018-12-04T04:21:00.812Z,9.10
2018-12-04T04:23:30.126Z,9.10
2018-12-04T04:25:59.133Z,9.10
2018-12-04T04:28:28.144Z,9.10
2018-12-04T04:30:57.160Z,9.10
2018-12-04T04:35:58.008Z,9.00
2018-12-04T04:38:27.125Z,9.00
2018-12-04T04:40:56.138Z,9.00
2018-12-04T04:43:25.171Z,8.90
2018-12-04T04:45:54.179Z,9.00
2018-12-04T04:48:23.200Z,9.00
2018-12-04T04:50:52.169Z,9.00
2018-12-04T04:53:21.192Z,8.90
2018-12-04T04:55:50.197Z,8.90
2018-12-04T04:58:19.234Z,8.90
2018-12-04T05:00:48.223Z,8.90
2018-12-04T05:03:17.339Z,8.90
2018-12-04T05:05:46.323Z,8.90
2018-12-04T05:08:15.329Z,9.00
2018-12-04T05:13:12.957Z,8.90
2018-12-04T05:18:10.582Z,9.00
2018-12-04T05:20:39.585Z,9.00
2018-12-04T05:23:08.534Z,9.00
2018-12-04T05:35:32.219Z,8.90
2018-12-04T05:38:01.212Z,8.90
2018-12-04T05:40:30.227Z,8.80
2018-12-04T05:42:59.798Z,8.80
2018-12-04T05:45:28.787Z,8.90
2018-12-04T05:47:57.770Z,8.80
2018-12-04T05:50:26.774Z,8.90
2018-12-04T05:53:07.139Z,8.90
2018-12-04T05:55:36.130Z,8.90
2018-12-04T05:58:05.245Z,8.90
2018-12-04T06:00:34.240Z,8.80
2018-12-04T06:05:31.813Z,8.80
2018-12-04T06:08:00.753Z,8.90
2018-12-04T06:12:58.541Z,8.80
2018-12-04T06:15:27.580Z,8.80
2018-12-04T06:20:25.745Z,8.80
2018-12-04T06:22:54.741Z,8.80
2018-12-04T06:25:23.811Z,8.70
2018-12-04T06:27:52.798Z,8.70
2018-12-04T06:30:21.864Z,8.70
2018-12-04T06:32:50.855Z,8.70
2018-12-04T06:37:48.528Z,8.60
2018-12-04T06:42:46.155Z,8.70
2018-12-04T06:45:15.320Z,8.60
2018-12-04T06:47:44.296Z,8.60
2018-12-04T06:50:13.734Z,8.60
2018-12-04T06:52:42.721Z,8.60
2018-12-04T06:55:11.725Z,8.60
2018-12-04T06:57:40.720Z,8.60
2018-12-04T07:00:09.853Z,8.60
2018-12-04T07:02:38.837Z,8.60
2018-12-04T07:05:08.511Z,8.60
2018-12-04T07:07:37.526Z,8.60
2018-12-04T07:10:06.676Z,8.60
2018-12-04T07:12:35.706Z,8.50
2018-12-04T07:17:33.343Z,8.60
2018-12-04T07:20:02.340Z,8.60
2018-12-04T07:22:31.322Z,8.70
2018-12-04T07:25:00.316Z,8.70
2018-12-04T07:27:29.410Z,8.80
2018-12-04T07:29:58.433Z,8.90
2018-12-04T07:32:27.993Z,9.00
2018-12-04T07:34:57.529Z,9.20
2018-12-04T07:37:27.158Z,9.20
2018-12-04T07:39:56.255Z,9.20
2018-12-04T07:44:53.994Z,9.30
2018-12-04T07:47:22.994Z,9.30
2018-12-04T07:49:51.992Z,9.40
2018-12-04T07:52:21.037Z,9.40
2018-12-04T07:54:50.049Z,9.50
2018-12-04T07:57:19.097Z,9.50
2018-12-04T07:59:48.109Z,9.50
2018-12-04T08:02:17.149Z,9.60
2018-12-04T08:07:15.545Z,10.10
2018-12-04T08:12:13.168Z,9.60
2018-12-04T08:14:42.183Z,9.60
2018-12-04T08:17:11.153Z,9.50
2018-12-04T08:19:40.148Z,9.50
2018-12-04T08:24:37.713Z,9.40
2018-12-04T08:27:06.931Z,9.40
2018-12-04T08:29:35.924Z,9.40
2018-12-04T08:32:04.901Z,9.40
2018-12-04T08:34:33.980Z,9.50
2018-12-04T08:37:02.946Z,9.40
2018-12-04T08:39:31.909Z,9.40
2018-12-04T08:46:58.041Z,9.40
2018-12-04T08:51:55.642Z,9.40
2018-12-04T08:54:24.615Z,9.40
2018-12-04T08:59:22.187Z,9.30
2018-12-04T09:01:51.197Z,9.20
2018-12-04T09:04:20.177Z,9.20
2018-12-04T09:06:49.185Z,9.20
2018-12-04T09:09:18.840Z,9.30
2018-12-04T09:11:47.849Z,9.20
2018-12-04T09:14:17.603Z,9.00
2018-12-04T09:16:46.896Z,8.90
2018-12-04T09:21:44.801Z,8.50
2018-12-04T09:24:13.963Z,8.50
2018-12-04T09:26:43.106Z,8.50
2018-12-04T09:29:12.237Z,8.70
2018-12-04T09:34:10.387Z,8.80
2018-12-04T09:36:40.028Z,8.90
2018-12-04T09:41:38.512Z,9.20
2018-12-04T09:44:07.895Z,9.30
2018-12-04T09:46:36.908Z,9.50
2018-12-04T09:49:05.960Z,9.80
2018-12-04T09:51:34.962Z,9.70
2018-12-04T09:59:01.217Z,9.20
2018-12-04T10:06:27.489Z,8.50
2018-12-04T10:08:56.563Z,8.50
2018-12-04T10:11:25.542Z,8.50
2018-12-04T10:13:54.543Z,8.40
2018-12-04T10:18:52.147Z,8.50
2018-12-04T10:21:21.132Z,8.50
2018-12-04T10:23:50.070Z,8.50
2018-12-04T10:26:19.052Z,8.60
2018-12-04T10:28:48.065Z,8.90
2018-12-04T10:31:17.169Z,9.00
2018-12-04T10:33:46.148Z,9.00
2018-12-04T10:38:43.728Z,9.00
2018-12-04T10:46:09.960Z,8.70
2018-12-04T10:48:39.203Z,8.70
2018-12-04T10:51:08.179Z,8.70
2018-12-04T10:53:37.161Z,8.60
2018-12-04T10:56:06.257Z,8.70
2018-12-04T10:58:35.790Z,8.70
2018-12-04T11:01:10.136Z,8.80
2018-12-04T11:03:43.241Z,8.80
2018-12-04T11:06:13.160Z,9.00
2018-12-04T11:11:11.472Z,9.40
2018-12-04T11:16:09.929Z,9.40
2018-12-04T11:21:07.555Z,9.30
2018-12-04T11:23:36.575Z,9.20
2018-12-04T11:26:05.584Z,9.30
2018-12-04T11:28:34.610Z,9.10
2018-12-04T11:33:33.989Z,9.30
2018-12-04T11:36:02.976Z,9.10
2018-12-04T11:38:31.998Z,9.20
2018-12-04T11:41:00.996Z,9.20
2018-12-04T11:43:29.987Z,9.40
2018-12-04T11:45:58.974Z,9.30
2018-12-04T11:51:00.139Z,9.30
2018-12-04T11:55:56.172Z,10.50
2018-12-04T11:58:25.312Z,11.30
2018-12-04T12:00:54.431Z,11.30
2018-12-04T12:03:23.488Z,11.30
2018-12-04T12:05:52.473Z,10.50
2018-12-04T12:08:21.537Z,10.50
2018-12-04T12:10:50.550Z,10.00
2018-12-04T12:13:19.642Z,10.10
2018-12-04T12:15:48.639Z,10.00
2018-12-04T12:20:46.246Z,9.60
2018-12-04T12:23:15.268Z,9.40
2018-12-04T12:25:44.232Z,9.40
2018-12-04T12:30:41.914Z,9.20
2018-12-04T12:33:10.942Z,9.10
2018-12-04T12:35:40.699Z,9.10
2018-12-04T12:38:09.711Z,9.10
2018-12-04T12:40:38.751Z,9.30
2018-12-04T12:43:07.825Z,9.30
2018-12-04T12:45:36.833Z,9.40
2018-12-04T12:48:05.889Z,9.30
2018-12-04T12:50:35.384Z,9.40
2018-12-04T12:53:04.424Z,9.60
2018-12-04T12:58:02.300Z,9.30
2018-12-04T13:00:31.518Z,9.50
2018-12-04T13:03:00.530Z,9.40
2018-12-04T13:10:26.876Z,9.40
2018-12-04T13:12:55.913Z,9.40
2018-12-04T13:17:53.592Z,9.00
2018-12-04T13:22:51.211Z,9.00
2018-12-04T13:25:20.251Z,9.10
2018-12-04T13:27:49.300Z,9.10
2018-12-04T13:30:18.372Z,9.10
2018-12-04T13:32:47.658Z,9.10
2018-12-04T13:35:16.759Z,9.10
2018-12-04T13:37:45.753Z,9.00
2018-12-04T13:40:14.820Z,9.00
2018-12-04T13:42:43.801Z,9.00
2018-12-04T13:45:12.798Z,8.90
2018-12-04T13:50:11.624Z,8.80
2018-12-04T13:52:40.648Z,8.80
2018-12-04T13:57:38.403Z,8.80
2018-12-04T14:00:08.344Z,8.70
2018-12-04T14:02:37.331Z,8.70
2018-12-04T14:05:08.332Z,8.70
2018-12-04T14:07:37.507Z,8.80
2018-12-04T14:10:09.367Z,8.80
2018-12-04T14:15:07.472Z,8.90
2018-12-04T14:17:36.439Z,8.90
2018-12-04T14:20:07.786Z,8.60
2018-12-04T14:22:36.895Z,8.50
2018-12-04T14:25:05.991Z,8.50
2018-12-04T14:32:33.118Z,8.30
2018-12-04T14:35:02.178Z,8.10
2018-12-04T14:37:31.152Z,8.10
2018-12-04T14:40:00.214Z,8.10
2018-12-04T14:42:29.296Z,8.00
2018-12-04T14:44:58.433Z,8.00
2018-12-04T14:47:27.405Z,7.90
2018-12-04T14:52:25.093Z,7.90
2018-12-04T14:54:54.597Z,7.80
2018-12-04T14:57:23.599Z,7.90
2018-12-04T14:59:52.640Z,7.90
2018-12-04T15:02:21.731Z,7.90
2018-12-04T15:04:50.797Z,7.90
2018-12-04T15:07:20.069Z,7.80
2018-12-04T15:09:49.176Z,7.90
2018-12-04T15:12:18.651Z,8.00
2018-12-04T15:14:47.821Z,7.90
2018-12-04T15:17:16.923Z,7.90
2018-12-04T15:19:46.985Z,7.90
2018-12-04T15:22:15.984Z,7.80
2018-12-04T15:24:44.989Z,7.70
2018-12-04T15:27:14.359Z,7.70
2018-12-04T15:29:43.420Z,7.70
2018-12-04T15:32:12.410Z,7.60
2018-12-04T15:37:10.161Z,7.60
2018-12-04T15:39:39.341Z,7.50
2018-12-04T15:42:08.470Z,7.50
2018-12-04T15:44:37.629Z,7.40
2018-12-04T15:47:07.333Z,7.40
2018-12-04T15:49:36.320Z,7.40
2018-12-04T15:52:05.430Z,7.30
2018-12-04T15:54:34.457Z,7.30
2018-12-04T15:59:32.124Z,7.30
2018-12-04T16:02:01.108Z,7.10
2018-12-04T16:04:30.096Z,7.10
2018-12-04T16:06:59.138Z,7.10
2018-12-04T16:09:28.152Z,7.10
2018-12-04T16:11:58.444Z,7.20
2018-12-04T16:14:27.730Z,7.20
2018-12-04T16:19:25.400Z,7.30
2018-12-04T16:21:54.547Z,7.30
2018-12-04T16:24:23.622Z,7.20
2018-12-04T16:26:52.913Z,7.10
2018-12-04T16:29:21.886Z,7.20
2018-12-04T16:31:50.917Z,7.10
2018-12-04T16:34:20.111Z,7.10
2018-12-04T16:36:49.125Z,7.00
2018-12-04T16:39:18.372Z,7.00
2018-12-04T16:41:47.588Z,7.00
2018-12-04T16:44:17.193Z,7.00
2018-12-04T16:51:44.217Z,7.00
2018-12-04T16:59:10.664Z,6.90
2018-12-04T17:01:40.281Z,7.00
2018-12-04T17:04:09.417Z,7.00
2018-12-04T17:06:38.493Z,7.00
2018-12-04T17:09:08.268Z,6.90
2018-12-04T17:11:37.473Z,6.90
2018-12-04T17:14:06.449Z,6.80
2018-12-04T17:16:35.588Z,6.90
2018-12-04T17:26:30.922Z,6.90
2018-12-04T17:29:01.164Z,7.00
2018-12-04T17:31:30.154Z,7.00
2018-12-04T17:33:59.172Z,6.90
2018-12-04T17:36:28.145Z,6.90
2018-12-04T17:38:57.123Z,6.90
2018-12-04T17:43:54.838Z,7.00
2018-12-04T17:46:24.018Z,7.00
2018-12-04T17:51:21.625Z,7.00
2018-12-04T17:53:50.586Z,6.80
2018-12-04T17:56:19.668Z,6.80
2018-12-04T18:01:17.361Z,6.70
2018-12-04T18:06:15.005Z,6.60
2018-12-04T18:08:44.009Z,6.50
2018-12-04T18:13:41.906Z,6.40
2018-12-04T18:16:11.240Z,6.40
2018-12-04T18:18:40.480Z,6.30
2018-12-04T18:21:09.478Z,6.20
2018-12-04T18:28:35.900Z,6.20
2018-12-04T18:33:33.477Z,6.10
2018-12-04T18:36:02.518Z,6.20
2018-12-04T18:38:31.518Z,6.20
2018-12-04T18:43:29.425Z,6.20
2018-12-04T18:45:58.477Z,6.10
2018-12-04T18:50:56.506Z,6.30
2018-12-04T18:53:25.647Z,6.30
2018-12-04T18:55:54.643Z,6.40
2018-12-04T18:58:23.666Z,6.30
2018-12-04T19:00:52.707Z,6.20
2018-12-04T19:05:50.656Z,6.30
2018-12-04T19:08:24.527Z,6.30
2018-12-04T19:13:22.431Z,6.20
2018-12-04T19:15:51.437Z,6.20
2018-12-04T19:20:49.097Z,6.30
2018-12-04T19:23:18.205Z,6.40
2018-12-04T19:25:47.980Z,6.30
2018-12-04T19:28:16.974Z,6.30
2018-12-04T19:30:46.257Z,6.30
2018-12-04T19:33:17.421Z,6.40
2018-12-04T19:35:46.637Z,6.30
2018-12-04T19:38:15.677Z,6.30
2018-12-04T19:40:45.757Z,6.30
2018-12-04T19:43:15.364Z,6.30
2018-12-04T19:45:45.765Z,6.20
2018-12-04T19:50:43.947Z,6.10
2018-12-04T19:53:13.980Z,6.20
2018-12-04T19:58:12.293Z,6.10
2018-12-04T20:00:42.322Z,6.20
2018-12-04T20:03:12.092Z,6.30
2018-12-04T20:05:41.298Z,6.30
2018-12-04T20:08:10.530Z,6.30
2018-12-04T20:10:47.166Z,6.20
2018-12-04T20:15:46.875Z,6.20
2018-12-04T20:18:17.394Z,6.20
2018-12-04T20:20:46.541Z,6.10
2018-12-04T20:23:15.572Z,6.20
2018-12-04T20:25:44.722Z,6.10
2018-12-04T20:33:11.461Z,6.30
2018-12-04T20:35:40.937Z,6.20
2018-12-04T20:38:10.007Z,6.10
2018-12-04T20:40:39.689Z,6.10
2018-12-04T20:43:09.418Z,6.10
2018-12-04T20:45:39.584Z,6.10
2018-12-04T20:48:09.368Z,6.10
2018-12-04T20:53:07.262Z,6.10
2018-12-04T20:58:05.313Z,6.10
2018-12-04T21:03:03.735Z,6.20
2018-12-04T21:05:33.069Z,6.10
2018-12-04T21:10:31.292Z,6.00
2018-12-04T21:13:00.969Z,6.00
2018-12-04T21:15:31.168Z,6.00
2018-12-04T21:18:00.127Z,5.90
2018-12-04T21:25:26.399Z,6.00
2018-12-04T21:28:00.753Z,6.00
2018-12-04T21:33:09.329Z,6.00
2018-12-04T21:35:43.600Z,6.00
2018-12-04T21:39:16.482Z,5.90
2018-12-04T21:42:00.865Z,6.00
2018-12-04T21:44:35.188Z,5.90
2018-12-04T21:47:09.892Z,5.90
2018-12-04T21:49:38.956Z,5.90
2018-12-04T21:52:07.925Z,6.00
2018-12-04T21:57:05.611Z,6.10
2018-12-04T22:02:03.596Z,6.00
2018-12-04T22:04:32.606Z,6.00
2018-12-04T22:07:01.759Z,6.10
2018-12-04T22:11:59.424Z,6.00
2018-12-04T22:16:57.005Z,6.10
2018-12-04T22:19:25.983Z,6.10
2018-12-04T22:24:23.574Z,6.00
2018-12-04T22:26:52.553Z,6.20
2018-12-04T22:34:18.950Z,6.00
2018-12-04T22:44:14.388Z,6.10
2018-12-04T22:46:43.357Z,6.00
2018-12-04T22:49:12.663Z,6.00
2018-12-04T22:54:10.271Z,6.00
2018-12-04T22:56:39.278Z,6.00
2018-12-04T22:59:08.220Z,6.00
2018-12-04T23:01:39.837Z,5.80
2018-12-04T23:04:09.177Z,5.90
2018-12-04T23:06:38.318Z,5.90
2018-12-04T23:09:09.736Z,5.90
2018-12-04T23:11:39.192Z,5.90
2018-12-04T23:14:08.527Z,5.90
2018-12-04T23:16:37.632Z,5.90
2018-12-04T23:19:06.716Z,5.80
2018-12-04T23:21:35.685Z,5.80
2018-12-04T23:24:05.112Z,5.80
2018-12-04T23:29:02.640Z,5.70
2018-12-04T23:31:31.630Z,5.70
2018-12-04T23:34:00.710Z,5.60
2018-12-04T23:36:29.732Z,5.60
2018-12-04T23:46:26.653Z,5.60
2018-12-04T23:48:56.137Z,5.60
2018-12-04T23:51:25.169Z,5.60
2018-12-04T23:53:54.169Z,5.70
2018-12-04T23:58:51.716Z,5.80
